createdAt,value
2018-09-29T00:02:05.727Z,14.40
2018-09-29T00:04:34.228Z,14.40
2018-09-29T00:07:03.355Z,14.40
2018-09-29T00:09:31.846Z,14.30
2018-09-29T00:12:00.419Z,14.30
2018-09-29T00:14:28.903Z,14.30
2018-09-29T00:16:57.453Z,14.30
2018-09-29T00:19:25.937Z,14.30
2018-09-29T00:21:54.485Z,14.30
2018-09-29T00:24:22.999Z,14.20
2018-09-29T00:26:51.575Z,14.20
2018-09-29T00:29:20.079Z,14.20
2018-09-29T00:31:49.280Z,14.20
2018-09-29T00:34:17.770Z,14.20
2018-09-29T00:36:46.290Z,14.10
2018-09-29T00:39:14.780Z,14.10
2018-09-29T00:41:43.328Z,14.00
2018-09-29T00:44:11.818Z,14.10
2018-09-29T00:46:40.323Z,14.10
2018-09-29T00:49:08.897Z,14.00
2018-09-29T00:51:37.430Z,14.00
2018-09-29T00:54:05.957Z,13.90
2018-09-29T00:56:34.490Z,13.90
2018-09-29T00:59:03.021Z,13.90
2018-09-29T01:01:31.518Z,13.90
2018-09-29T01:04:03.507Z,13.80
2018-09-29T01:06:31.994Z,13.80
2018-09-29T01:09:00.506Z,13.80
2018-09-29T01:11:29.004Z,13.80
2018-09-29T01:13:57.569Z,13.70
2018-09-29T01:16:26.066Z,13.70
2018-09-29T01:18:54.622Z,13.70
2018-09-29T01:21:23.127Z,13.70
2018-09-29T01:23:51.697Z,13.50
2018-09-29T01:26:20.243Z,13.40
2018-09-29T01:28:48.802Z,13.40
2018-09-29T01:31:17.339Z,13.30
2018-09-29T01:33:46.706Z,13.30
2018-09-29T01:36:15.599Z,13.30
2018-09-29T01:38:44.455Z,13.20
2018-09-29T01:41:12.955Z,13.10
2018-09-29T01:43:41.487Z,13.10
2018-09-29T01:46:10.055Z,13.10
2018-09-29T01:48:38.549Z,13.10
2018-09-29T01:51:07.107Z,13.10
2018-09-29T01:53:35.643Z,13.00
2018-09-29T01:56:07.936Z,13.00
2018-09-29T01:58:36.476Z,13.00
2018-09-29T02:01:05.034Z,13.00
2018-09-29T02:03:33.543Z,13.00
2018-09-29T02:06:02.472Z,12.90
2018-09-29T02:08:30.955Z,12.90
2018-09-29T02:10:59.538Z,12.90
2018-09-29T02:13:28.055Z,12.90
2018-09-29T02:15:56.639Z,12.80
2018-09-29T02:18:25.152Z,12.80
2018-09-29T02:20:53.710Z,12.80
2018-09-29T02:23:22.239Z,12.80
2018-09-29T02:25:50.838Z,12.80
2018-09-29T02:28:19.375Z,12.70
2018-09-29T02:30:47.950Z,12.70
2018-09-29T02:33:16.474Z,12.70
2018-09-29T02:35:45.000Z,12.70
2018-09-29T02:38:13.527Z,12.70
2018-09-29T02:40:42.130Z,12.70
2018-09-29T02:43:10.643Z,12.60
2018-09-29T02:45:39.132Z,12.60
2018-09-29T02:48:07.662Z,12.60
2018-09-29T02:50:36.224Z,12.60
2018-09-29T02:53:04.812Z,12.60
2018-09-29T02:55:33.338Z,12.50
2018-09-29T02:58:03.351Z,12.50
2018-09-29T03:00:31.846Z,12.50
2018-09-29T03:03:00.417Z,12.50
2018-09-29T03:05:28.939Z,12.50
2018-09-29T03:07:57.511Z,12.40
2018-09-29T03:10:26.042Z,12.50
2018-09-29T03:12:54.589Z,12.40
2018-09-29T03:15:23.138Z,12.40
2018-09-29T03:17:51.767Z,12.40
2018-09-29T03:20:20.410Z,12.40
2018-09-29T03:22:48.969Z,12.40
2018-09-29T03:25:17.478Z,12.40
2018-09-29T03:27:46.003Z,12.40
2018-09-29T03:30:14.557Z,12.40
2018-09-29T03:32:43.095Z,12.30
2018-09-29T03:35:11.607Z,12.30
2018-09-29T03:37:40.227Z,12.30
2018-09-29T03:40:08.818Z,12.20
2018-09-29T03:42:37.323Z,12.30
2018-09-29T03:45:06.081Z,12.30
2018-09-29T03:47:34.589Z,12.30
2018-09-29T03:50:03.174Z,12.20
2018-09-29T03:52:31.686Z,12.20
2018-09-29T03:55:00.289Z,12.20
2018-09-29T03:57:28.878Z,12.20
2018-09-29T03:59:57.467Z,12.20
2018-09-29T04:02:25.979Z,12.10
2018-09-29T04:04:54.607Z,12.10
2018-09-29T04:07:23.102Z,12.10
2018-09-29T04:09:51.672Z,12.10
2018-09-29T04:12:20.199Z,12.10
2018-09-29T04:14:48.776Z,12.00
2018-09-29T04:17:17.318Z,12.00
2018-09-29T04:19:45.904Z,12.00
2018-09-29T04:22:14.416Z,12.00
2018-09-29T04:24:42.953Z,12.00
2018-09-29T04:27:11.484Z,12.00
2018-09-29T04:29:40.061Z,12.00
2018-09-29T04:32:08.641Z,11.90
2018-09-29T04:34:37.162Z,11.90
2018-09-29T04:37:05.762Z,11.90
2018-09-29T04:39:34.338Z,11.90
2018-09-29T04:42:02.978Z,11.90
2018-09-29T04:44:31.471Z,11.90
2018-09-29T04:47:00.011Z,11.90
2018-09-29T04:49:28.551Z,11.90
2018-09-29T04:51:57.113Z,12.00
2018-09-29T04:54:25.600Z,11.90
2018-09-29T04:56:54.141Z,11.90
2018-09-29T04:59:22.637Z,12.00
2018-09-29T05:01:51.179Z,11.90
2018-09-29T05:04:19.720Z,12.00
2018-09-29T05:06:48.262Z,11.90
2018-09-29T05:09:16.762Z,11.90
2018-09-29T05:11:45.320Z,11.90
2018-09-29T05:14:13.974Z,11.90
2018-09-29T05:16:42.514Z,11.90
2018-09-29T05:19:11.033Z,11.90
2018-09-29T05:21:39.582Z,11.90
2018-09-29T05:24:08.134Z,11.90
2018-09-29T05:26:36.905Z,11.90
2018-09-29T05:29:05.493Z,11.80
2018-09-29T05:31:34.018Z,11.80
2018-09-29T05:34:02.577Z,11.80
2018-09-29T05:36:31.111Z,11.80
2018-09-29T05:38:59.666Z,11.80
2018-09-29T05:41:28.200Z,11.80
2018-09-29T05:43:56.761Z,11.80
2018-09-29T05:46:25.271Z,11.80
2018-09-29T05:48:53.814Z,11.80
2018-09-29T05:51:22.345Z,11.80
2018-09-29T05:53:50.967Z,11.70
2018-09-29T05:56:19.483Z,11.70
2018-09-29T05:58:48.055Z,11.70
2018-09-29T06:01:16.611Z,11.70
2018-09-29T06:03:45.151Z,11.70
2018-09-29T06:06:13.683Z,11.60
2018-09-29T06:08:42.249Z,11.50
2018-09-29T06:11:10.808Z,11.60
2018-09-29T06:13:39.347Z,11.60
2018-09-29T06:16:07.942Z,11.60
2018-09-29T06:18:36.715Z,11.60
2018-09-29T06:21:05.335Z,11.50
2018-09-29T06:23:33.775Z,11.50
2018-09-29T06:26:03.530Z,11.30
2018-09-29T06:28:32.011Z,11.40
2018-09-29T06:31:00.536Z,11.40
2018-09-29T06:33:29.034Z,11.40
2018-09-29T06:35:57.639Z,11.30
2018-09-29T06:38:26.159Z,11.20
2018-09-29T06:40:54.707Z,11.20
2018-09-29T06:43:23.210Z,11.10
2018-09-29T06:45:52.279Z,11.10
2018-09-29T06:48:21.131Z,11.20
2018-09-29T06:50:49.655Z,11.30
2018-09-29T06:53:18.160Z,11.40
2018-09-29T06:55:47.227Z,11.60
2018-09-29T06:58:15.756Z,11.50
2018-09-29T07:00:44.338Z,11.50
2018-09-29T07:03:12.951Z,11.60
2018-09-29T07:05:41.499Z,11.70
2018-09-29T07:08:10.048Z,11.80
2018-09-29T07:10:38.607Z,11.90
2018-09-29T07:13:07.172Z,11.90
2018-09-29T07:15:35.701Z,12.00
2018-09-29T07:18:04.501Z,12.00
2018-09-29T07:20:33.060Z,11.90
2018-09-29T07:23:03.775Z,11.90
2018-09-29T07:25:32.352Z,11.90
2018-09-29T07:28:00.849Z,11.90
2018-09-29T07:30:29.418Z,11.90
2018-09-29T07:32:58.020Z,11.80
2018-09-29T07:35:26.630Z,11.80
2018-09-29T07:37:55.243Z,11.70
2018-09-29T07:40:23.771Z,11.80
2018-09-29T07:42:52.323Z,11.80
2018-09-29T07:45:20.854Z,11.80
2018-09-29T07:47:49.409Z,11.90
2018-09-29T07:50:17.990Z,12.10
2018-09-29T07:52:46.550Z,12.20
2018-09-29T07:55:15.151Z,12.20
2018-09-29T07:57:43.682Z,12.30
2018-09-29T08:00:12.248Z,12.40
2018-09-29T08:02:40.886Z,12.60
2018-09-29T08:05:09.394Z,12.80
2018-09-29T08:07:37.992Z,12.80
2018-09-29T08:10:06.724Z,12.80
2018-09-29T08:12:35.316Z,12.80
2018-09-29T08:15:03.885Z,12.90
2018-09-29T08:17:32.435Z,12.90
2018-09-29T08:20:02.835Z,13.00
2018-09-29T08:22:31.355Z,13.10
2018-09-29T08:24:59.884Z,13.00
2018-09-29T08:27:28.491Z,13.10
2018-09-29T08:29:57.036Z,13.10
2018-09-29T08:32:25.592Z,13.10
2018-09-29T08:34:54.131Z,13.20
2018-09-29T08:37:22.679Z,13.30
2018-09-29T08:39:51.231Z,13.40
2018-09-29T08:42:19.747Z,13.40
2018-09-29T08:44:48.343Z,13.40
2018-09-29T08:47:16.866Z,13.50
2018-09-29T08:49:45.405Z,13.60
2018-09-29T08:52:13.903Z,13.60
2018-09-29T08:54:42.493Z,13.70
2018-09-29T08:57:11.115Z,13.70
2018-09-29T08:59:39.677Z,13.80
2018-09-29T09:02:08.187Z,13.70
2018-09-29T09:04:36.849Z,13.80
2018-09-29T09:07:06.059Z,13.60
2018-09-29T09:09:34.668Z,13.70
2018-09-29T09:12:03.155Z,13.80
2018-09-29T09:14:31.679Z,13.80
2018-09-29T09:17:00.251Z,13.90
2018-09-29T09:19:28.791Z,13.80
2018-09-29T09:21:57.331Z,13.80
2018-09-29T09:24:25.847Z,13.80
2018-09-29T09:26:54.423Z,13.80
2018-09-29T09:29:23.010Z,13.80
2018-09-29T09:31:51.602Z,13.90
2018-09-29T09:34:20.099Z,13.80
2018-09-29T09:36:48.696Z,13.90
2018-09-29T09:39:17.244Z,14.00
2018-09-29T09:41:45.807Z,14.10
2018-09-29T09:44:14.370Z,14.30
2018-09-29T09:46:42.987Z,14.40
2018-09-29T09:49:11.555Z,14.30
2018-09-29T09:51:40.106Z,14.30
2018-09-29T09:54:08.647Z,14.20
2018-09-29T09:56:37.243Z,14.30
2018-09-29T09:59:05.836Z,14.30
2018-09-29T10:01:39.809Z,14.50
2018-09-29T10:04:08.455Z,14.70
2018-09-29T10:06:37.173Z,14.70
2018-09-29T10:09:08.455Z,14.80
2018-09-29T10:11:37.051Z,14.70
2018-09-29T10:14:05.553Z,14.80
2018-09-29T10:16:34.469Z,14.90
2018-09-29T10:19:03.867Z,14.70
2018-09-29T10:21:32.491Z,14.70
2018-09-29T10:24:02.999Z,14.90
2018-09-29T10:26:31.565Z,15.00
2018-09-29T10:29:00.111Z,15.00
2018-09-29T10:31:28.687Z,14.90
2018-09-29T10:33:57.204Z,14.90
2018-09-29T10:36:26.208Z,15.00
2018-09-29T10:38:54.722Z,15.10
2018-09-29T10:41:23.267Z,15.10
2018-09-29T10:43:52.115Z,15.10
2018-09-29T10:46:20.670Z,15.10
2018-09-29T10:48:49.206Z,15.10
2018-09-29T10:51:17.769Z,14.90
2018-09-29T10:53:46.334Z,14.90
2018-09-29T10:56:14.906Z,15.00
2018-09-29T10:58:43.407Z,15.20
2018-09-29T11:01:11.887Z,15.40
2018-09-29T11:03:40.356Z,15.50
2018-09-29T11:06:08.909Z,15.60
2018-09-29T11:08:37.398Z,15.60
2018-09-29T11:11:05.953Z,15.60
2018-09-29T11:13:34.475Z,15.60
2018-09-29T11:16:03.086Z,15.50
2018-09-29T11:18:31.649Z,15.40
2018-09-29T11:21:00.230Z,15.30
2018-09-29T11:23:28.711Z,15.40
2018-09-29T11:25:57.241Z,15.40
2018-09-29T11:28:25.795Z,15.40
2018-09-29T11:30:54.318Z,15.50
2018-09-29T11:33:22.867Z,15.50
2018-09-29T11:35:51.380Z,15.60
2018-09-29T11:38:19.910Z,15.70
2018-09-29T11:40:48.503Z,15.70
2018-09-29T11:43:17.027Z,15.70
2018-09-29T11:45:45.603Z,15.90
2018-09-29T11:48:14.108Z,15.90
2018-09-29T11:50:42.671Z,15.80
2018-09-29T11:53:11.230Z,15.80
2018-09-29T11:55:39.840Z,15.80
2018-09-29T11:58:08.378Z,16.00
2018-09-29T12:00:36.942Z,16.00
2018-09-29T12:03:05.512Z,16.10
2018-09-29T12:05:34.016Z,16.10
2018-09-29T12:08:02.612Z,15.90
2018-09-29T12:10:31.130Z,15.90
2018-09-29T12:12:59.678Z,16.10
2018-09-29T12:15:28.219Z,16.10
2018-09-29T12:17:56.755Z,16.10
2018-09-29T12:20:25.281Z,16.10
2018-09-29T12:22:53.844Z,15.80
2018-09-29T12:25:22.529Z,15.90
2018-09-29T12:27:51.097Z,15.90
2018-09-29T12:30:19.628Z,16.00
2018-09-29T12:32:48.198Z,16.20
2018-09-29T12:35:16.731Z,16.40
2018-09-29T12:37:45.342Z,16.50
2018-09-29T12:40:13.802Z,16.60
2018-09-29T12:42:42.370Z,16.40
2018-09-29T12:45:10.923Z,16.30
2018-09-29T12:47:39.514Z,16.10
2018-09-29T12:50:08.088Z,16.10
2018-09-29T12:52:36.874Z,16.20
2018-09-29T12:55:05.410Z,16.10
2018-09-29T12:57:34.000Z,15.90
2018-09-29T13:00:05.790Z,16.00
2018-09-29T13:02:34.289Z,16.20
2018-09-29T13:05:03.623Z,16.30
2018-09-29T13:07:32.129Z,16.20
2018-09-29T13:10:00.740Z,16.20
2018-09-29T13:12:29.287Z,16.10
2018-09-29T13:14:57.790Z,16.20
2018-09-29T13:17:27.250Z,16.10
2018-09-29T13:19:55.794Z,16.30
2018-09-29T13:22:24.379Z,16.30
2018-09-29T13:24:52.922Z,16.00
2018-09-29T13:27:21.477Z,16.10
2018-09-29T13:29:50.053Z,16.20
2018-09-29T13:32:18.639Z,16.00
2018-09-29T13:34:47.254Z,16.00
2018-09-29T13:37:15.767Z,16.00
2018-09-29T13:39:44.343Z,15.90
2018-09-29T13:42:12.894Z,16.00
2018-09-29T13:44:41.456Z,16.20
2018-09-29T13:47:09.982Z,16.10
2018-09-29T13:49:38.580Z,16.00
2018-09-29T13:52:07.207Z,15.90
2018-09-29T13:54:35.734Z,15.90
2018-09-29T13:57:05.202Z,15.90
2018-09-29T13:59:33.724Z,15.90
2018-09-29T14:02:03.059Z,16.00
2018-09-29T14:04:31.562Z,15.90
2018-09-29T14:07:00.103Z,16.00
2018-09-29T14:09:28.620Z,15.90
2018-09-29T14:11:57.167Z,15.90
2018-09-29T14:14:25.672Z,15.80
2018-09-29T14:16:54.216Z,15.60
2018-09-29T14:19:22.722Z,15.60
2018-09-29T14:21:51.273Z,15.70
2018-09-29T14:24:19.784Z,15.60
2018-09-29T14:26:48.338Z,15.60
2018-09-29T14:29:17.124Z,15.60
2018-09-29T14:31:45.643Z,15.60
2018-09-29T14:34:14.186Z,15.60
2018-09-29T14:36:42.742Z,15.50
2018-09-29T14:39:11.251Z,15.50
2018-09-29T14:41:40.254Z,15.50
2018-09-29T14:44:09.266Z,15.30
2018-09-29T14:46:37.943Z,15.20
2018-09-29T14:49:06.643Z,15.20
2018-09-29T14:51:35.186Z,15.10
2018-09-29T14:54:03.788Z,15.10
2018-09-29T14:56:32.351Z,15.00
2018-09-29T14:59:02.319Z,15.00
2018-09-29T15:01:30.858Z,14.90
2018-09-29T15:03:59.465Z,14.90
2018-09-29T15:06:27.967Z,15.00
2018-09-29T15:08:56.543Z,15.00
2018-09-29T15:11:25.089Z,15.00
2018-09-29T15:13:53.698Z,14.90
2018-09-29T15:16:22.206Z,14.90
2018-09-29T15:18:50.762Z,14.80
2018-09-29T15:21:19.373Z,14.70
2018-09-29T15:23:47.920Z,14.70
2018-09-29T15:26:16.418Z,14.70
2018-09-29T15:28:44.978Z,14.50
2018-09-29T15:31:13.488Z,14.50
2018-09-29T15:33:42.013Z,14.40
2018-09-29T15:36:10.486Z,14.40
2018-09-29T15:38:39.043Z,14.40
2018-09-29T15:41:07.558Z,14.30
2018-09-29T15:43:36.110Z,14.30
2018-09-29T15:46:04.682Z,14.30
2018-09-29T15:48:33.252Z,14.20
2018-09-29T15:51:03.586Z,14.20
2018-09-29T15:53:32.229Z,14.20
2018-09-29T15:56:00.820Z,14.10
2018-09-29T15:58:29.349Z,14.00
2018-09-29T16:00:57.926Z,13.90
2018-09-29T16:03:26.422Z,13.80
2018-09-29T16:05:54.970Z,13.80
2018-09-29T16:08:23.470Z,13.80
2018-09-29T16:10:52.028Z,13.70
2018-09-29T16:13:20.510Z,13.70
2018-09-29T16:15:49.078Z,13.60
2018-09-29T16:18:17.602Z,13.60
2018-09-29T16:20:46.163Z,13.50
2018-09-29T16:23:14.671Z,13.50
2018-09-29T16:25:43.234Z,13.40
2018-09-29T16:28:11.751Z,13.30
2018-09-29T16:30:40.335Z,13.30
2018-09-29T16:33:08.872Z,13.20
2018-09-29T16:35:37.430Z,13.20
2018-09-29T16:38:06.008Z,13.10
2018-09-29T16:40:34.510Z,13.00
2018-09-29T16:43:05.360Z,12.90
2018-09-29T16:45:33.855Z,12.90
2018-09-29T16:48:03.672Z,12.70
2018-09-29T16:50:32.242Z,12.60
2018-09-29T16:53:00.864Z,12.50
2018-09-29T16:55:29.407Z,12.30
2018-09-29T16:57:58.004Z,12.20
2018-09-29T17:00:26.561Z,12.10
2018-09-29T17:02:55.146Z,12.00
2018-09-29T17:05:23.771Z,11.90
2018-09-29T17:07:52.389Z,11.80
2018-09-29T17:10:20.935Z,11.70
2018-09-29T17:12:49.487Z,11.60
2018-09-29T17:15:18.004Z,11.40
2018-09-29T17:17:46.613Z,11.40
2018-09-29T17:20:15.147Z,11.20
2018-09-29T17:22:44.367Z,11.10
2018-09-29T17:25:12.912Z,11.00
2018-09-29T17:27:41.725Z,10.90
2018-09-29T17:30:10.300Z,10.80
2018-09-29T17:32:38.887Z,10.70
2018-09-29T17:35:07.518Z,10.50
2018-09-29T17:37:36.046Z,10.40
2018-09-29T17:40:04.759Z,10.40
2018-09-29T17:42:33.331Z,10.30
2018-09-29T17:45:05.444Z,10.20
2018-09-29T17:47:33.970Z,10.20
2018-09-29T17:50:03.967Z,10.10
2018-09-29T17:52:32.526Z,10.00
2018-09-29T17:55:03.163Z,10.00
2018-09-29T17:57:31.808Z,9.90
2018-09-29T18:00:00.693Z,9.90
2018-09-29T18:02:29.239Z,9.90
2018-09-29T18:04:57.809Z,9.80
2018-09-29T18:07:26.346Z,9.60
2018-09-29T18:09:55.023Z,9.50
2018-09-29T18:12:23.578Z,9.50
2018-09-29T18:14:52.151Z,9.40
2018-09-29T18:17:20.696Z,9.50
2018-09-29T18:19:49.264Z,9.30
2018-09-29T18:22:17.778Z,9.30
2018-09-29T18:24:46.496Z,9.20
2018-09-29T18:27:15.028Z,9.20
2018-09-29T18:29:43.537Z,9.10
2018-09-29T18:32:12.101Z,9.10
2018-09-29T18:34:40.660Z,9.00
2018-09-29T18:37:09.283Z,8.90
2018-09-29T18:39:37.795Z,8.90
2018-09-29T18:42:06.466Z,8.80
2018-09-29T18:44:34.992Z,8.70
2018-09-29T18:47:03.659Z,8.70
2018-09-29T18:49:32.172Z,8.60
2018-09-29T18:52:00.751Z,8.60
2018-09-29T18:54:29.264Z,8.60
2018-09-29T18:56:57.855Z,8.50
2018-09-29T18:59:26.382Z,8.50
2018-09-29T19:01:54.947Z,8.40
2018-09-29T19:04:23.442Z,8.40
2018-09-29T19:06:51.980Z,8.30
2018-09-29T19:09:20.545Z,8.30
2018-09-29T19:11:49.166Z,8.30
2018-09-29T19:14:17.610Z,8.20
2018-09-29T19:16:46.178Z,8.20
2018-09-29T19:19:14.674Z,8.10
2018-09-29T19:21:43.257Z,8.10
2018-09-29T19:24:11.755Z,8.10
2018-09-29T19:26:40.269Z,8.00
2018-09-29T19:29:08.821Z,8.00
2018-09-29T19:31:37.306Z,8.00
2018-09-29T19:34:05.867Z,8.00
2018-09-29T19:36:34.401Z,7.90
2018-09-29T19:39:03.774Z,7.80
2018-09-29T19:41:32.249Z,7.80
2018-09-29T19:44:00.784Z,7.70
2018-09-29T19:46:29.372Z,7.70
2018-09-29T19:48:57.898Z,7.70
2018-09-29T19:51:26.448Z,7.70
2018-09-29T19:53:54.963Z,7.60
2018-09-29T19:56:23.539Z,7.60
2018-09-29T19:58:52.075Z,7.50
2018-09-29T20:01:20.558Z,7.50
2018-09-29T20:03:49.177Z,7.50
2018-09-29T20:06:17.609Z,7.50
2018-09-29T20:08:46.138Z,7.50
2018-09-29T20:11:14.662Z,7.40
2018-09-29T20:13:43.250Z,7.40
2018-09-29T20:16:11.790Z,7.40
2018-09-29T20:18:40.306Z,7.30
2018-09-29T20:21:08.806Z,7.30
2018-09-29T20:23:37.352Z,7.30
2018-09-29T20:26:05.866Z,7.20
2018-09-29T20:28:34.340Z,7.20
2018-09-29T20:31:03.641Z,7.20
2018-09-29T20:33:32.126Z,7.10
2018-09-29T20:36:00.786Z,7.10
2018-09-29T20:38:29.296Z,7.00
2018-09-29T20:40:57.818Z,7.00
2018-09-29T20:43:26.311Z,7.00
2018-09-29T20:45:54.841Z,6.90
2018-09-29T20:48:23.430Z,6.90
2018-09-29T20:50:51.964Z,6.90
2018-09-29T20:53:20.483Z,6.90
2018-09-29T20:55:49.030Z,6.90
2018-09-29T20:58:17.571Z,6.90
2018-09-29T21:00:46.122Z,6.80
2018-09-29T21:03:14.625Z,6.80
2018-09-29T21:05:43.198Z,6.80
2018-09-29T21:08:11.703Z,6.70
2018-09-29T21:10:40.266Z,6.70
2018-09-29T21:13:08.875Z,6.60
2018-09-29T21:15:37.295Z,6.70
2018-09-29T21:18:07.843Z,6.60
2018-09-29T21:20:36.340Z,6.60
2018-09-29T21:23:04.854Z,6.60
2018-09-29T21:25:33.389Z,6.60
2018-09-29T21:28:03.219Z,6.60
2018-09-29T21:30:31.703Z,6.60
2018-09-29T21:33:00.279Z,6.60
2018-09-29T21:35:28.796Z,6.60
2018-09-29T21:37:57.368Z,6.60
2018-09-29T21:40:25.948Z,6.60
2018-09-29T21:42:54.474Z,6.60
2018-09-29T21:45:23.008Z,6.60
2018-09-29T21:47:51.595Z,6.50
2018-09-29T21:50:20.089Z,6.50
2018-09-29T21:52:48.829Z,6.50
2018-09-29T21:55:17.370Z,6.50
2018-09-29T21:57:46.486Z,6.50
2018-09-29T22:00:18.709Z,6.50
2018-09-29T22:02:47.186Z,6.60
2018-09-29T22:05:15.810Z,6.50
2018-09-29T22:07:44.306Z,6.50
2018-09-29T22:10:12.830Z,6.50
2018-09-29T22:12:41.354Z,6.50
2018-09-29T22:15:09.904Z,6.50
2018-09-29T22:17:38.425Z,6.50
2018-09-29T22:20:07.010Z,6.50
2018-09-29T22:22:35.486Z,6.40
2018-09-29T22:25:08.180Z,6.40
2018-09-29T22:27:36.651Z,6.40
2018-09-29T22:30:05.908Z,6.40
2018-09-29T22:32:34.422Z,6.40
2018-09-29T22:35:02.940Z,6.30
2018-09-29T22:37:31.454Z,6.30
2018-09-29T22:39:59.930Z,6.30
2018-09-29T22:42:28.456Z,6.30
2018-09-29T22:44:57.067Z,6.20
2018-09-29T22:47:25.575Z,6.20
2018-09-29T22:49:54.076Z,6.20
2018-09-29T22:52:22.626Z,6.10
2018-09-29T22:54:51.113Z,6.10
2018-09-29T22:57:19.689Z,6.10
2018-09-29T22:59:48.196Z,6.10
2018-09-29T23:02:16.746Z,6.10
2018-09-29T23:04:45.224Z,6.10
2018-09-29T23:07:13.726Z,6.10
2018-09-29T23:09:42.234Z,6.10
2018-09-29T23:12:10.821Z,6.10
2018-09-29T23:14:39.318Z,6.10
2018-09-29T23:17:07.826Z,6.00
2018-09-29T23:19:36.382Z,6.00
2018-09-29T23:22:04.914Z,6.00
2018-09-29T23:24:33.439Z,6.00
2018-09-29T23:27:01.938Z,6.00
2018-09-29T23:29:30.468Z,6.00
2018-09-29T23:31:59.004Z,6.00
2018-09-29T23:34:27.594Z,5.90
2018-09-29T23:36:56.110Z,5.90
2018-09-29T23:39:24.644Z,5.90
2018-09-29T23:41:53.170Z,5.90
2018-09-29T23:44:21.707Z,5.90
2018-09-29T23:46:50.203Z,5.90
2018-09-29T23:49:18.739Z,5.90
2018-09-29T23:51:47.236Z,5.90
2018-09-29T23:54:15.780Z,5.90
2018-09-29T23:56:44.310Z,5.90
2018-09-29T23:59:12.827Z,5.80
